Flight Track Log - Related Links

Times and Time Zones

All times are in EDT time to prevent confusion due to time zone crossing. See the N449ND flight status page for this flight to view local times or setup timezone preferences in your user account.

Time Position Orientation Groundspeed Altitude Reporting Facility
EDT Latitude Longitude Course Direction KTS MPH feet Rate Location/Type
Tue 09:38:17 PM 26.7439 -80.0533 North 82 94 2,000  Level Miami Center
Tue 09:39:18 PM 26.7669 -80.0575 351° North 82 94 2,400 443 Climbing Miami Center
Tue 09:40:19 PM 26.7928 -80.0606 354° North 85 98 2,900 344 Climbing Miami Center
Tue 09:41:00 PM 26.8095 -80.1464 336° Northwest  Level FlightAware Approximate
Tue 09:41:20 PM 26.8169 -80.0617 358° North 86 99 3,100  Level Miami Center
Tue 09:42:00 PM 26.8335 -80.1562 342° North  Level FlightAware Approximate
Tue 09:42:21 PM 26.8411 -80.0764 331° Northwest 93 107 3,100  Level Miami Center
Tue 09:43:22 PM 26.8628 -80.0989 317° Northwest 100 115 3,100  Level Miami Center
Tue 09:44:23 PM 26.8817 -80.1169 320° Northwest 95 109 3,100 197 Level Miami Center
Tue 09:45:24 PM 26.9022 -80.1369 319° Northwest 96 110 3,500 393 Climbing Miami Center
Tue 09:46:25 PM 26.9181 -80.1547 315° West 83 96 3,900 295 Climbing Miami Center
Tue 09:47:26 PM 26.9375 -80.1728 320° Northwest 84 97 4,100 98 Climbing Miami Center
Tue 09:48:27 PM 26.9600 -80.1950 319° Northwest 104 120 4,100  Level Miami Center
Tue 09:49:28 PM 26.9831 -80.2086 332° Northwest 100 115 4,100 -49 Level Miami Center
Tue 09:50:29 PM 27.0128 -80.2217 339° North 108 124 4,000 -49 Descending Miami Center
Tue 09:51:30 PM 27.0403 -80.2311 343° North 99 114 4,000  Level Miami Center
Tue 09:52:31 PM 27.0683 -80.2442 337° Northwest 111 128 4,000 49 Level Miami Center
Tue 09:53:32 PM 27.0969 -80.2561 340° North 109 125 4,100  Climbing Miami Center
Tue 09:54:33 PM 27.1264 -80.2681 340° North 109 125 4,000 -49 Descending Miami Center
Tue 09:55:34 PM 27.1533 -80.2800 338° Northwest 108 124 4,000  Level Miami Center
Tue 09:56:35 PM 27.1825 -80.2906 342° North 104 120 4,000  Level Miami Center
Tue 09:57:39 PM 27.2089 -80.3017 339° North 105 121 4,000  Level Miami Center
Tue 09:58:39 PM 27.2378 -80.3136 340° North 105 121 4,000  Level Miami Center
Tue 09:59:41 PM 27.2650 -80.3233 342° North 105 121 4,000  Level Miami Center
Tue 10:00:40 PM 27.2931 -80.3350 340° North 105 121 4,000 49 Level Miami Center
Tue 10:01:43 PM 27.3211 -80.3472 339° North 105 121 4,100  Climbing Miami Center
Tue 10:02:42 PM 27.3492 -80.3597 338° Northwest 104 120 4,000 -50 Descending Miami Center
Tue 10:03:42 PM 27.3758 -80.3692 343° North 104 120 4,000  Level Miami Center
Tue 10:04:45 PM 27.4044 -80.3792 343° North 105 121 4,000  Level Miami Center
Tue 10:05:47 PM 27.4347 -80.3894 343° North 105 121 4,000  Level Miami Center
Tue 10:06:45 PM 27.4600 -80.4008 338° Northwest 105 121 4,000  Level Miami Center
Tue 10:07:48 PM 27.4897 -80.4108 343° North 105 121 4,000  Level Miami Center
Tue 10:08:47 PM 27.5181 -80.4236 338° Northwest 105 121 4,000  Level Miami Center
Tue 10:09:51 PM 27.5444 -80.4350 339° North 105 121 4,000 49 Level Miami Center
Tue 10:10:49 PM 27.5689 -80.4508 330° Northwest 98 113 4,100  Climbing Miami Center
Tue 10:11:50 PM 27.5597 -80.4825 252° West 101 116 4,000 -48 Descending Miami Center
Tue 10:12:53 PM 27.5628 -80.5114 277° West 101 116 4,000  Level Miami Center
Tue 10:13:55 PM 27.5706 -80.5411 286° West 98 113 4,000  Level Miami Center
Tue 10:14:55 PM 27.5836 -80.5686 298° West 99 114 4,000 -197 Level Miami Center
Tue 10:15:57 PM 27.6028 -80.5922 312° West 101 116 3,600 -443 Descending Miami Center
Tue 10:16:57 PM 27.6269 -80.6097 327° Northwest 100 115 3,100 -300 Descending Miami Center
Tue 10:17:57 PM 27.6528 -80.6203 340° North 102 117 3,000 -347 Descending Miami Center
Tue 10:18:58 PM 27.6825 -80.6219 357° North 102 117 2,400 -488 Descending Miami Center
Tue 10:20:00 PM 27.7108 -80.6167 North 101 116 2,000 -246 Descending Miami Center
Tue 10:21:00 PM 27.7108 -80.5886 90° East 105 121 1,900 -246 Descending Miami Center
Tue 10:22:02 PM 27.7025 -80.5569 107° East 103 119 1,500 -339 Descending Miami Center
Tue 10:23:04 PM 27.6906 -80.5297 116° Southeast 92 106 1,200 -146 Descending Miami Center
Tue 10:24:05 PM 27.6825 -80.5022 108° East 93 107 1,200 -149 Level Miami Center
Tue 10:25:05 PM 27.6719 -80.4739 113° Southeast 94 108 900 -397 Descending Miami Center
Tue 10:26:06 PM 27.6653 -80.4503 108° East 86 99 400 -198 Descending Miami Center
Tue 10:27:06 PM 27.6561 -80.4228 111° Southeast 86 99 500 347 Climbing Miami Center
Tue 10:28:07 PM 27.6572 -80.3978 87° East 87 100 1,100 537 Climbing Miami Center
Tue 10:29:09 PM 27.6783 -80.4036 346° North 85 98 1,600 443 Climbing Miami Center
Tue 10:30:09 PM 27.7017 -80.4097 347° North 83 96 2,000 200 Climbing Miami Center
Tue 10:31:09 PM 27.7300 -80.4136 353° North 93 107 2,000 195 Level Miami Center
Tue 10:32:12 PM 27.7478 -80.3922 47° Northeast 98 113 2,400 397 Climbing Miami Center
Tue 10:33:10 PM 27.7389 -80.3736 118° Southeast 94 108 2,800 303 Climbing Miami Center
Tue 10:34:11 PM 27.7203 -80.3917 221° Southwest 89 102 3,000 97 Climbing Miami Center
Tue 10:35:14 PM 27.6975 -80.4131 220° Southwest 100 115 3,000  Level Miami Center
Tue 10:36:15 PM 27.6733 -80.4375 222° Southwest 109 125 3,000  Level Miami Center
Tue 10:37:16 PM 27.6506 -80.4575 218° Southwest 109 125 3,000  Level Miami Center
Tue 10:38:15 PM 27.6261 -80.4825 222° Southwest 112 129 3,000  Level Miami Center
Tue 10:39:17 PM 27.6047 -80.5044 222° Southwest 112 129 3,000 -97 Level Miami Center
Tue 10:40:19 PM 27.5803 -80.5272 220° Southwest 111 128 2,800 -492 Descending Miami Center
Tue 10:41:19 PM 27.5578 -80.5475 219° Southwest 110 127 2,000 -400 Descending Miami Center
Tue 10:42:19 PM 27.5275 -80.5433 173° South 106 122 2,000  Level Miami Center
Tue 10:43:20 PM 27.5097 -80.5158 126° Southeast 107 123 2,000 -49 Level Miami Center
Tue 10:44:21 PM 27.4975 -80.4881 116° Southeast 105 121 1,900 -98 Descending Miami Center

Login

Don't have an account? Register now (free) for customized features, flight alerts, and more!